Time;durP1;ratioP1;P1;durP2;ratioP2;P2;SDS_P1;SDS_P2;PMS_P1;PMS_P2;Temp;Humidity;BMP_temperature;BMP_pressure;BME280_temperature;BME280_humidity;BME280_pressure;Samples;Min_cycle;Max_cycle;Signal;HPM_P1;HPM_P2
2023/10/24 00:00:20;;;;;;;20.38;10.48;;;;;;;11.55;71.02;99875.22;4898649;28;97453;-78
2023/10/24 00:02:46;;;;;;;20.67;11.63;;;;;;;11.49;71.35;99872.00;4914354;28;101383;-78
2023/10/24 00:05:11;;;;;;;17.88;10.63;;;;;;;11.29;71.81;99858.00;4913960;28;97982;-78
2023/10/24 00:07:37;;;;;;;21.20;10.45;;;;;;;11.33;71.80;99864.78;4933677;28;96893;-78
2023/10/24 00:10:02;;;;;;;16.77;10.43;;;;;;;11.26;72.31;99859.91;4909238;28;97102;-78
2023/10/24 00:12:29;;;;;;;20.33;11.05;;;;;;;11.29;72.31;99867.66;4949533;28;99401;-78
2023/10/24 00:14:57;;;;;;;17.83;10.75;;;;;;;11.27;72.38;99872.09;4901191;28;99057;-78
2023/10/24 00:17:23;;;;;;;17.73;11.35;;;;;;;11.05;72.19;99840.66;4902011;28;96736;-78
2023/10/24 00:19:49;;;;;;;24.95;10.77;;;;;;;10.98;72.26;99812.97;4934415;28;96996;-78
2023/10/24 00:22:14;;;;;;;21.73;12.45;;;;;;;11.36;71.80;99865.59;4934535;28;97525;-78
2023/10/24 00:24:40;;;;;;;20.40;10.52;;;;;;;11.33;72.36;99864.78;4900998;28;101316;-78
2023/10/24 00:27:05;;;;;;;21.63;12.80;;;;;;;11.27;72.32;99849.31;4933937;28;96795;-78
2023/10/24 00:29:31;;;;;;;25.08;12.32;;;;;;;11.06;73.09;99861.63;4901674;28;96870;-78
2023/10/24 00:31:57;;;;;;;24.70;13.20;;;;;;;10.96;73.04;99857.66;4917868;28;101051;-78
2023/10/24 00:34:23;;;;;;;25.55;12.50;;;;;;;11.12;72.93;99857.03;4917193;28;98219;-78
2023/10/24 00:36:48;;;;;;;25.05;11.93;;;;;;;11.19;73.05;99864.56;4910689;28;96729;-78
2023/10/24 00:39:14;;;;;;;24.27;11.85;;;;;;;11.00;73.00;99861.88;4933014;28;96916;-79
2023/10/24 00:41:40;;;;;;;19.92;12.48;;;;;;;10.93;73.04;99813.16;4918570;28;99087;-78
2023/10/24 00:44:07;;;;;;;24.40;13.18;;;;;;;10.82;72.87;99804.88;4937405;28;97927;-79
2023/10/24 00:46:37;;;;;;;24.73;11.95;;;;;;;11.04;73.46;99846.84;4920466;28;96749;-78
2023/10/24 00:49:03;;;;;;;21.83;11.68;;;;;;;10.90;73.63;99846.56;4921034;28;96868;-78
2023/10/24 00:51:29;;;;;;;27.25;13.65;;;;;;;10.77;73.51;99810.34;4903638;28;100406;-78
2023/10/24 00:53:56;;;;;;;23.20;12.82;;;;;;;11.02;73.39;99833.75;4904264;28;100996;-78
2023/10/24 00:56:21;;;;;;;21.52;12.35;;;;;;;10.61;74.18;99815.38;4903181;28;96821;-78
2023/10/24 00:58:48;;;;;;;22.65;12.10;;;;;;;10.67;73.91;99801.16;4903919;28;96890;-78
2023/10/24 01:01:13;;;;;;;19.23;11.70;;;;;;;10.99;73.60;99828.63;4936698;28;97921;-78
2023/10/24 01:03:39;;;;;;;20.88;12.27;;;;;;;10.97;74.17;99825.25;4919516;28;101412;-79
2023/10/24 01:06:06;;;;;;;22.55;13.20;;;;;;;10.99;73.62;99820.75;4920961;28;97039;-78
2023/10/24 01:08:32;;;;;;;22.20;12.75;;;;;;;11.04;73.26;99810.06;4904321;28;96826;-78
2023/10/24 01:10:57;;;;;;;21.52;12.00;;;;;;;10.94;73.20;99769.34;4904238;28;101517;-78
2023/10/24 01:13:23;;;;;;;22.98;12.95;;;;;;;10.98;73.59;99781.44;4919662;28;101290;-78
2023/10/24 01:15:49;;;;;;;22.15;13.55;;;;;;;11.12;73.31;99809.75;4953653;28;97096;-78
2023/10/24 01:18:14;;;;;;;21.95;13.23;;;;;;;11.27;72.98;99804.63;4919088;28;97014;-79
2023/10/24 01:20:40;;;;;;;31.55;14.23;;;;;;;11.19;73.15;99809.38;4916881;28;101627;-78
2023/10/24 01:23:10;;;;;;;25.02;14.27;;;;;;;10.95;73.53;99773.72;4935982;28;101406;-78
2023/10/24 01:25:40;;;;;;;23.88;12.73;;;;;;;11.25;73.28;99814.34;4919868;28;97163;-78
2023/10/24 01:28:06;;;;;;;21.92;13.88;;;;;;;11.17;73.75;99807.75;4903794;28;97124;-78
2023/10/24 01:30:33;;;;;;;29.27;14.45;;;;;;;11.28;73.31;99808.13;4920296;28;98645;-78
2023/10/24 01:32:58;;;;;;;29.65;13.40;;;;;;;11.23;73.67;99803.09;4919860;28;98504;-78
2023/10/24 01:35:24;;;;;;;22.67;13.15;;;;;;;11.09;73.73;99773.94;4919741;28;96800;-78
2023/10/24 01:37:49;;;;;;;20.50;12.50;;;;;;;11.24;73.65;99801.31;4953608;28;97983;-79
2023/10/24 01:40:15;;;;;;;24.13;13.05;;;;;;;11.22;73.70;99800.50;4902038;28;101366;-78
2023/10/24 01:42:40;;;;;;;23.75;12.40;;;;;;;11.29;73.41;99778.31;4917876;28;101242;-78
2023/10/24 01:45:07;;;;;;;21.20;12.50;;;;;;;11.01;73.57;99741.91;4935970;28;97225;-78
2023/10/24 01:47:33;;;;;;;29.77;12.73;;;;;;;11.19;73.36;99777.84;4919757;28;96925;-78
2023/10/24 01:49:59;;;;;;;29.23;13.30;;;;;;;11.05;73.33;99744.34;4920429;28;97547;-78
2023/10/24 01:52:24;;;;;;;25.65;12.27;;;;;;;11.15;73.09;99771.03;4919472;28;100873;-78
2023/10/24 01:54:50;;;;;;;21.85;11.18;;;;;;;11.28;72.95;99784.47;4919841;28;98547;-78
2023/10/24 01:57:17;;;;;;;20.08;11.18;;;;;;;11.29;73.10;99773.06;4920572;28;96842;-78
2023/10/24 01:59:43;;;;;;;21.25;10.98;;;;;;;11.13;73.38;99774.66;4919598;28;101530;-78
2023/10/24 02:02:09;;;;;;;20.95;11.93;;;;;;;10.80;73.43;99727.97;4913552;28;100894;-78
2023/10/24 02:04:35;;;;;;;23.27;11.90;;;;;;;11.16;73.20;99775.38;4935438;28;97356;-78
2023/10/24 02:07:00;;;;;;;19.33;10.18;;;;;;;11.20;72.59;99762.94;4919538;28;96937;-78
2023/10/24 02:09:27;;;;;;;19.95;11.32;;;;;;;11.23;72.63;99760.22;4918619;28;101204;-78
2023/10/24 02:11:53;;;;;;;27.08;11.45;;;;;;;11.28;72.29;99763.44;4919692;28;97833;-78
2023/10/24 02:14:18;;;;;;;22.67;11.40;;;;;;;11.42;72.46;99779.44;4919064;28;97256;-78
2023/10/24 02:16:44;;;;;;;21.00;10.32;;;;;;;11.36;72.47;99777.09;4903328;28;97161;-79
2023/10/24 02:19:09;;;;;;;22.75;11.38;;;;;;;11.23;72.18;99762.84;4919103;28;101440;-78
2023/10/24 02:21:36;;;;;;;25.33;11.32;;;;;;;11.10;72.18;99767.78;4920394;28;98294;-77
2023/10/24 02:24:01;;;;;;;21.52;11.75;;;;;;;11.04;72.80;99789.06;4918984;28;96771;-78
2023/10/24 02:26:27;;;;;;;20.38;11.52;;;;;;;11.07;72.37;99765.28;4919263;28;97447;-78
2023/10/24 02:28:52;;;;;;;22.10;11.85;;;;;;;11.01;72.42;99742.78;4902311;28;101218;-78
2023/10/24 02:31:18;;;;;;;22.40;10.77;;;;;;;11.18;72.49;99786.66;4935301;28;97935;-78
2023/10/24 02:33:43;;;;;;;20.23;10.30;;;;;;;11.12;72.48;99780.84;4917184;28;96922;-78
2023/10/24 02:36:10;;;;;;;19.75;11.50;;;;;;;10.98;72.56;99756.03;4919632;28;96862;-78
2023/10/24 02:38:36;;;;;;;19.45;10.55;;;;;;;11.31;72.03;99795.72;4934383;28;101262;-79
2023/10/24 02:41:01;;;;;;;23.17;10.90;;;;;;;11.06;71.84;99742.56;4902816;28;101176;-78
2023/10/24 02:43:27;;;;;;;24.80;11.43;;;;;;;11.23;72.04;99761.06;4918062;28;98552;-78
2023/10/24 02:45:54;;;;;;;17.48;10.63;;;;;;;11.25;71.77;99743.41;4919486;28;96802;-78
2023/10/24 02:48:19;;;;;;;18.75;10.65;;;;;;;11.33;71.77;99756.22;4918396;28;101435;-78
2023/10/24 02:50:51;;;;;;;24.83;11.10;;;;;;;11.41;72.03;99784.78;4918631;28;101234;-78
2023/10/24 02:53:16;;;;;;;27.52;10.75;;;;;;;11.26;71.99;99768.78;4922172;28;96714;-78
2023/10/24 02:55:42;;;;;;;25.50;11.43;;;;;;;11.33;72.01;99783.34;4918440;28;97325;-78
2023/10/24 02:58:09;;;;;;;21.63;11.38;;;;;;;11.23;72.43;99776.81;4920194;28;101622;-78
2023/10/24 03:00:34;;;;;;;21.83;11.95;;;;;;;11.13;72.41;99780.75;4934541;28;101561;-78
2023/10/24 03:03:00;;;;;;;22.02;10.23;;;;;;;11.16;71.92;99766.63;4919098;28;97384;-78
2023/10/24 03:05:26;;;;;;;20.85;11.43;;;;;;;11.21;72.16;99754.16;4918287;28;97023;-77
2023/10/24 03:07:52;;;;;;;20.02;11.30;;;;;;;11.30;72.36;99753.72;4918473;28;98098;-77
2023/10/24 03:10:18;;;;;;;21.60;11.02;;;;;;;11.32;72.21;99741.38;4952440;28;98411;-76
2023/10/24 03:12:43;;;;;;;20.38;10.75;;;;;;;10.97;72.34;99704.44;4918021;28;96852;-76
2023/10/24 03:15:09;;;;;;;21.45;11.10;;;;;;;11.02;72.48;99714.72;4934763;28;97060;-76
2023/10/24 03:17:35;;;;;;;21.38;10.75;;;;;;;11.02;73.10;99748.88;4933809;28;97520;-76
2023/10/24 03:20:03;;;;;;;23.38;11.73;;;;;;;11.09;73.03;99759.03;4918848;28;101345;-76
2023/10/24 03:22:28;;;;;;;21.00;11.27;;;;;;;10.88;72.93;99752.97;4901954;28;97213;-76
2023/10/24 03:24:55;;;;;;;29.88;12.32;;;;;;;10.66;73.52;99697.09;4934401;28;96758;-77
2023/10/24 03:27:21;;;;;;;22.85;11.55;;;;;;;10.91;73.25;99711.72;4918048;28;101256;-77
2023/10/24 03:29:47;;;;;;;19.55;11.82;;;;;;;10.78;74.03;99711.44;4934047;28;101171;-76
2023/10/24 03:32:13;;;;;;;23.23;11.63;;;;;;;10.96;74.36;99725.50;4918664;28;96808;-76
2023/10/24 03:34:39;;;;;;;24.48;11.38;;;;;;;11.02;74.09;99723.44;4917837;28;97264;-76
2023/10/24 03:37:05;;;;;;;21.52;10.82;;;;;;;11.10;73.76;99718.72;4918263;28;101634;-76
2023/10/24 03:39:30;;;;;;;29.10;10.90;;;;;;;10.93;73.17;99678.38;4917064;28;101736;-76
2023/10/24 03:41:56;;;;;;;22.55;11.90;;;;;;;11.09;73.40;99701.25;4919101;28;98826;-77
2023/10/24 03:44:24;;;;;;;27.70;12.00;;;;;;;10.90;73.23;99668.88;4921600;28;96898;-76
2023/10/24 03:46:50;;;;;;;24.00;12.18;;;;;;;11.13;73.15;99720.34;4937994;28;98209;-76
2023/10/24 03:49:16;;;;;;;24.30;11.68;;;;;;;11.17;73.05;99742.94;4937452;28;97431;-76
2023/10/24 03:51:41;;;;;;;26.05;11.65;;;;;;;11.15;73.23;99738.69;4921692;28;97972;-76
2023/10/24 03:54:07;;;;;;;22.55;11.73;;;;;;;11.16;72.94;99735.97;4954807;28;96951;-77
2023/10/24 03:56:32;;;;;;;22.58;11.45;;;;;;;11.21;72.93;99743.66;4921423;28;100942;-76
2023/10/24 03:58:59;;;;;;;22.48;12.40;;;;;;;11.23;72.74;99749.69;4920818;28;101296;-76
2023/10/24 04:01:24;;;;;;;25.17;12.30;;;;;;;11.26;72.84;99754.81;4938266;28;96746;-76
2023/10/24 04:03:50;;;;;;;23.63;12.55;;;;;;;11.23;72.54;99755.78;4905835;28;97342;-76
2023/10/24 04:06:16;;;;;;;24.95;12.95;;;;;;;10.77;72.86;99679.09;4904821;28;101183;-76
2023/10/24 04:08:42;;;;;;;19.42;11.63;;;;;;;11.16;72.93;99743.84;4936710;28;97630;-76
2023/10/24 04:11:15;;;;;;;28.35;13.10;;;;;;;11.13;72.90;99722.13;4937760;28;96956;-76
2023/10/24 04:13:42;;;;;;;19.42;11.13;;;;;;;11.15;72.65;99721.13;4920341;28;97248;-77
2023/10/24 04:16:07;;;;;;;27.95;13.55;;;;;;;11.28;72.81;99731.91;4937014;28;101273;-76
2023/10/24 04:18:33;;;;;;;27.58;12.85;;;;;;;11.20;72.79;99732.28;4919853;28;101146;-76
2023/10/24 04:20:58;;;;;;;24.45;12.93;;;;;;;10.97;72.99;99693.94;4937321;28;97145;-76
2023/10/24 04:23:24;;;;;;;26.15;12.25;;;;;;;11.10;72.97;99713.47;4936176;28;97352;-76
2023/10/24 04:25:49;;;;;;;22.35;12.63;;;;;;;10.88;73.40;99689.13;4920580;28;101597;-76
2023/10/24 04:28:15;;;;;;;25.08;12.20;;;;;;;11.05;73.38;99698.81;4920407;28;101439;-76
2023/10/24 04:30:41;;;;;;;25.45;12.38;;;;;;;10.98;73.89;99705.28;4936807;28;97096;-76
2023/10/24 04:33:07;;;;;;;23.63;11.82;;;;;;;10.76;73.83;99669.53;4920717;28;97445;-77
2023/10/24 04:35:40;;;;;;;22.88;12.30;;;;;;;10.96;74.17;99700.09;4920307;28;101222;-77
2023/10/24 04:38:06;;;;;;;23.85;11.52;;;;;;;10.98;74.47;99700.03;4936147;28;97860;-76
2023/10/24 04:40:31;;;;;;;31.83;14.55;;;;;;;10.89;73.99;99661.94;4937699;28;96735;-76
2023/10/24 04:42:57;;;;;;;21.75;11.63;;;;;;;10.95;74.11;99666.88;4920324;28;97035;-77
2023/10/24 04:45:22;;;;;;;21.55;12.52;;;;;;;11.03;74.06;99672.66;4920229;28;97493;-77
2023/10/24 04:47:48;;;;;;;24.58;12.40;;;;;;;10.99;74.09;99680.72;4937102;28;98033;-80
2023/10/24 04:50:14;;;;;;;25.80;12.60;;;;;;;10.91;74.50;99682.84;4905190;28;96773;-79
2023/10/24 04:52:39;;;;;;;26.38;12.15;;;;;;;10.80;74.87;99686.81;4936541;28;96865;-79
2023/10/24 04:55:06;;;;;;;26.88;12.85;;;;;;;10.75;75.22;99693.19;4932176;28;98070;-78
2023/10/24 04:57:31;;;;;;;24.65;12.57;;;;;;;10.27;76.13;99653.31;4914390;28;101692;-79
2023/10/24 04:59:58;;;;;;;32.15;14.10;;;;;;;10.25;77.08;99655.09;4899650;28;97372;-80
2023/10/24 05:02:24;;;;;;;30.95;13.98;;;;;;;10.30;76.88;99665.44;4935804;28;97653;-79
2023/10/24 05:04:49;;;;;;;24.50;13.77;;;;;;;10.50;76.60;99662.81;4902450;28;100998;-80
2023/10/24 05:07:15;;;;;;;28.27;13.15;;;;;;;10.56;76.58;99657.28;4918348;28;101414;-80
2023/10/24 05:09:40;;;;;;;33.55;14.13;;;;;;;10.64;76.05;99657.75;4910013;28;97240;-80
2023/10/24 05:12:06;;;;;;;25.75;14.18;;;;;;;10.49;75.99;99613.00;4906064;28;98460;-79
2023/10/24 05:14:31;;;;;;;25.23;15.10;;;;;;;10.51;76.30;99614.63;4919262;28;101385;-79
2023/10/24 05:16:57;;;;;;;28.67;13.77;;;;;;;10.78;76.11;99651.91;4936228;28;99367;-78
2023/10/24 05:19:22;;;;;;;28.17;14.25;;;;;;;10.76;75.76;99638.00;4919655;28;96799;-77
2023/10/24 05:21:48;;;;;;;30.63;13.32;;;;;;;10.61;76.07;99608.03;4920477;28;97350;-79
2023/10/24 05:24:13;;;;;;;28.30;13.50;;;;;;;10.77;76.09;99634.47;4953278;28;97546;-80
2023/10/24 05:26:39;;;;;;;27.25;13.60;;;;;;;10.74;76.06;99615.38;4935271;28;101328;-78
2023/10/24 05:29:05;;;;;;;26.02;14.88;;;;;;;10.90;75.71;99637.34;4920045;28;96831;-83
2023/10/24 05:31:30;;;;;;;31.60;14.48;;;;;;;10.54;75.69;99580.38;4920684;28;98380;-85
2023/10/24 05:33:56;;;;;;;28.75;14.18;;;;;;;10.35;75.95;99559.34;4902725;28;101144;-81
2023/10/24 05:36:21;;;;;;;24.60;14.60;;;;;;;10.95;75.69;99645.88;4953709;28;97363;-81
2023/10/24 05:38:47;;;;;;;24.60;14.13;;;;;;;10.95;75.32;99643.25;4935101;28;96816;-80
2023/10/24 05:41:12;;;;;;;31.40;14.90;;;;;;;10.85;75.37;99634.97;4919708;28;97383;-81
2023/10/24 05:43:39;;;;;;;28.85;14.27;;;;;;;10.86;75.42;99647.16;4915025;28;97615;-80
2023/10/24 05:46:05;;;;;;;26.25;13.90;;;;;;;10.82;75.44;99619.34;4932395;28;101105;-80
2023/10/24 05:48:32;;;;;;;24.42;13.25;;;;;;;11.09;74.77;99663.63;4916416;28;96790;-80
2023/10/24 05:50:57;;;;;;;34.72;15.10;;;;;;;11.00;75.05;99656.19;4917425;28;98858;-80
2023/10/24 05:53:22;;;;;;;25.50;13.60;;;;;;;11.00;75.29;99661.44;4923835;28;97826;-82
2023/10/24 05:55:48;;;;;;;29.90;14.50;;;;;;;11.07;74.35;99645.31;4932583;28;98038;-80
2023/10/24 05:58:13;;;;;;;27.45;14.07;;;;;;;11.23;74.57;99670.88;4916117;28;97297;-81
2023/10/24 06:00:39;;;;;;;26.45;13.35;;;;;;;11.25;74.17;99666.38;4915029;28;97101;-80
2023/10/24 06:03:05;;;;;;;24.98;13.60;;;;;;;11.14;74.24;99666.03;4912104;28;97857;-80
2023/10/24 06:05:30;;;;;;;22.83;13.43;;;;;;;10.76;75.18;99643.25;4923802;28;101685;-80
2023/10/24 06:07:56;;;;;;;27.00;13.90;;;;;;;10.79;75.30;99656.25;4915549;28;96854;-81
2023/10/24 06:10:21;;;;;;;26.42;13.85;;;;;;;10.85;75.94;99687.47;4909573;28;96907;-81
2023/10/24 06:12:47;;;;;;;31.17;14.18;;;;;;;11.07;75.29;99687.34;4931002;28;97797;-81
2023/10/24 06:15:12;;;;;;;28.67;14.70;;;;;;;10.84;75.12;99641.13;4914882;28;101574;-82
2023/10/24 06:17:38;;;;;;;27.85;14.23;;;;;;;11.24;74.96;99683.94;4915005;28;97180;-82
2023/10/24 06:20:04;;;;;;;24.33;14.55;;;;;;;10.90;74.85;99620.75;4917676;28;96836;-81
2023/10/24 06:22:29;;;;;;;22.60;14.15;;;;;;;11.05;74.53;99631.41;4914237;28;101237;-80
2023/10/24 06:24:57;;;;;;;29.70;15.18;;;;;;;11.30;74.60;99664.41;4930382;28;98099;-81
2023/10/24 06:27:22;;;;;;;25.85;14.88;;;;;;;11.29;74.04;99626.78;4914552;28;97086;-81
2023/10/24 06:29:48;;;;;;;32.38;15.05;;;;;;;11.21;74.17;99613.16;4914620;28;98359;-83
2023/10/24 06:32:13;;;;;;;30.75;14.95;;;;;;;11.53;73.63;99661.53;4914124;28;101923;-82
2023/10/24 06:34:39;;;;;;;32.90;15.65;;;;;;;11.76;73.13;99676.19;4897021;28;101282;-82
2023/10/24 06:37:04;;;;;;;32.08;14.82;;;;;;;11.72;72.79;99655.34;4931032;28;97417;-82
2023/10/24 06:39:30;;;;;;;33.88;15.98;;;;;;;11.87;72.33;99667.81;4912143;28;97171;-81
2023/10/24 06:41:55;;;;;;;29.60;14.82;;;;;;;11.83;72.07;99657.47;4904065;28;98230;-82
2023/10/24 06:44:22;;;;;;;29.20;15.15;;;;;;;12.04;72.24;99671.34;4931154;28;97579;-80
2023/10/24 06:46:47;;;;;;;32.92;15.98;;;;;;;12.03;72.09;99677.53;4914539;28;97057;-81
2023/10/24 06:49:13;;;;;;;32.13;15.23;;;;;;;12.01;71.45;99651.31;4915799;28;97566;-82
2023/10/24 06:51:38;;;;;;;28.15;14.98;;;;;;;12.13;71.63;99623.53;4932057;28;97527;-82
2023/10/24 06:54:04;;;;;;;34.13;14.88;;;;;;;12.50;70.30;99658.47;4932375;28;97636;-82
2023/10/24 06:56:29;;;;;;;31.17;15.73;;;;;;;12.35;70.56;99665.38;4933037;28;97251;-82
2023/10/24 06:58:55;;;;;;;37.88;16.00;;;;;;;12.05;70.95;99581.84;4933199;28;97626;-83
2023/10/24 07:01:21;;;;;;;25.70;14.60;;;;;;;12.45;69.85;99592.91;4931527;28;101266;-82
2023/10/24 07:03:47;;;;;;;30.42;14.70;;;;;;;12.47;69.57;99598.94;4930164;28;102181;-81
2023/10/24 07:06:13;;;;;;;33.40;16.02;;;;;;;12.85;69.32;99646.06;4915567;28;97235;-80
2023/10/24 07:08:40;;;;;;;38.95;15.95;;;;;;;13.21;67.36;99606.31;4914401;28;96905;-81
2023/10/24 07:11:05;;;;;;;29.98;16.27;;;;;;;13.47;67.12;99614.56;4915367;28;101133;-81
2023/10/24 07:13:31;;;;;;;27.90;15.88;;;;;;;13.95;65.95;99634.59;4911902;28;97682;-81
2023/10/24 07:15:56;;;;;;;29.92;15.82;;;;;;;14.06;65.05;99585.63;4929519;28;96836;-81
2023/10/24 07:18:22;;;;;;;28.08;15.95;;;;;;;14.57;63.26;99592.16;4914028;28;96889;-82
2023/10/24 07:20:48;;;;;;;31.15;15.82;;;;;;;15.29;62.09;99634.34;4925967;28;101667;-82
2023/10/24 07:23:14;;;;;;;30.92;15.77;;;;;;;15.65;60.97;99630.25;4892691;28;101155;-81
2023/10/24 07:25:41;;;;;;;26.60;15.25;;;;;;;16.57;58.52;99618.75;4926742;28;98670;-82
2023/10/24 07:28:06;;;;;;;29.13;15.93;;;;;;;16.94;57.29;99609.06;4913346;28;96927;-81
2023/10/24 07:30:32;;;;;;;29.33;14.20;;;;;;;16.99;56.00;99620.19;4912420;28;101560;-82
2023/10/24 07:32:57;;;;;;;27.60;14.20;;;;;;;16.38;57.25;99622.69;4928646;28;97779;-82
2023/10/24 07:35:23;;;;;;;27.58;13.80;;;;;;;17.16;56.47;99621.63;4907700;28;97406;-82
2023/10/24 07:37:49;;;;;;;29.95;15.38;;;;;;;17.16;56.18;99606.56;4922711;28;97597;-82
2023/10/24 07:40:15;;;;;;;29.00;15.13;;;;;;;17.05;55.93;99603.84;4914564;28;101473;-81
2023/10/24 07:42:41;;;;;;;26.98;14.50;;;;;;;16.80;56.43;99610.03;4922348;28;97881;-82
2023/10/24 07:45:07;;;;;;;33.60;14.68;;;;;;;17.72;55.09;99613.13;4911820;28;97081;-82
2023/10/24 07:47:32;;;;;;;29.60;15.55;;;;;;;17.80;54.22;99613.41;4932988;28;97103;-82
2023/10/24 07:49:59;;;;;;;27.70;14.80;;;;;;;17.82;53.93;99576.97;4912944;28;98467;-81
2023/10/24 07:52:24;;;;;;;33.78;14.75;;;;;;;17.95;53.75;99601.63;4930744;28;98360;-82
2023/10/24 07:54:50;;;;;;;24.77;13.85;;;;;;;18.28;53.02;99568.13;4926755;28;97257;-80
2023/10/24 07:57:16;;;;;;;34.78;14.68;;;;;;;17.59;54.15;99563.59;4922335;28;96854;-81
2023/10/24 07:59:41;;;;;;;32.55;14.45;;;;;;;17.72;53.16;99568.84;4901360;28;99794;-81
2023/10/24 08:02:07;;;;;;;33.92;15.23;;;;;;;18.39;52.32;99569.97;4908394;28;101742;-79
2023/10/24 08:04:34;;;;;;;28.52;14.52;;;;;;;20.09;49.39;99561.38;4911191;28;97672;-81
2023/10/24 08:07:01;;;;;;;26.02;12.73;;;;;;;20.43;47.20;99561.16;4915683;28;96821;-82
2023/10/24 08:09:26;;;;;;;22.52;12.35;;;;;;;21.44;46.12;99550.34;4914202;28;101832;-81
2023/10/24 08:11:52;;;;;;;25.50;13.82;;;;;;;22.01;45.11;99560.28;4930515;28;97858;-81
2023/10/24 08:14:17;;;;;;;22.50;13.40;;;;;;;22.89;43.04;99531.38;4930221;28;97979;-81
2023/10/24 08:16:43;;;;;;;25.60;13.70;;;;;;;23.60;42.11;99544.00;4928304;28;96887;-83
2023/10/24 08:19:08;;;;;;;21.15;12.63;;;;;;;22.73;42.74;99535.56;4907680;28;101895;-81
2023/10/24 08:21:34;;;;;;;22.23;12.93;;;;;;;23.41;40.75;99523.56;4893244;28;101395;-81
2023/10/24 08:23:59;;;;;;;25.90;12.63;;;;;;;23.93;40.11;99545.94;4930638;28;96797;-81
2023/10/24 08:26:25;;;;;;;20.17;12.50;;;;;;;23.79;40.45;99530.44;4908160;28;97044;-81
2023/10/24 08:28:50;;;;;;;28.80;13.23;;;;;;;25.33;38.01;99534.00;4900013;28;101478;-81
2023/10/24 08:31:16;;;;;;;22.65;12.27;;;;;;;24.25;38.86;99476.59;4916705;28;98003;-81
2023/10/24 08:33:41;;;;;;;20.23;12.80;;;;;;;25.23;38.39;99523.44;4927074;28;97348;-81
2023/10/24 08:36:07;;;;;;;24.42;12.70;;;;;;;24.81;38.19;99512.72;4901341;28;96879;-81
2023/10/24 08:38:33;;;;;;;25.45;13.13;;;;;;;25.75;36.90;99503.47;4916614;28;98017;-81
2023/10/24 08:40:59;;;;;;;25.08;13.32;;;;;;;26.69;35.30;99496.50;4900653;28;101497;-81
2023/10/24 08:43:25;;;;;;;18.02;11.82;;;;;;;27.78;33.53;99486.47;4912362;28;97276;-82
2023/10/24 08:45:51;;;;;;;21.25;11.82;;;;;;;28.07;32.80;99471.34;4929665;28;97398;-82
2023/10/24 08:48:17;;;;;;;22.10;12.80;;;;;;;27.87;33.69;99477.31;4912077;28;101831;-82
2023/10/24 08:50:43;;;;;;;22.65;12.48;;;;;;;29.33;31.70;99476.44;4916881;28;101467;-82
2023/10/24 08:53:11;;;;;;;20.20;11.85;;;;;;;29.34;31.04;99452.94;4916063;28;96798;-82
2023/10/24 08:55:38;;;;;;;18.95;12.02;;;;;;;29.80;31.00;99476.84;4910037;28;96824;-81
2023/10/24 08:58:04;;;;;;;18.67;11.65;;;;;;;29.74;30.60;99480.34;4916325;28;97382;-82
2023/10/24 09:00:30;;;;;;;19.73;10.20;;;;;;;29.68;30.77;99467.59;4932485;28;97465;-82
2023/10/24 09:02:56;;;;;;;20.58;11.98;;;;;;;29.97;30.29;99442.22;4932527;28;97600;-82
2023/10/24 09:05:25;;;;;;;19.58;11.38;;;;;;;29.94;30.52;99464.25;4922141;28;96912;-83
2023/10/24 09:07:51;;;;;;;23.75;11.10;;;;;;;27.98;32.41;99431.00;4915975;28;101506;-83
2023/10/24 09:10:16;;;;;;;22.20;12.07;;;;;;;24.86;37.31;99470.13;4916249;28;98206;-82
2023/10/24 09:12:42;;;;;;;31.98;13.55;;;;;;;24.78;37.66;99435.22;4916412;28;97304;-81
2023/10/24 09:15:11;;;;;;;19.98;12.15;;;;;;;25.28;37.55;99472.75;4916539;28;96867;-80
2023/10/24 09:17:37;;;;;;;18.05;12.00;;;;;;;25.24;37.66;99474.06;4932214;28;98572;-82
2023/10/24 09:20:03;;;;;;;20.95;12.35;;;;;;;23.48;40.26;99463.03;4916616;28;97375;-81
2023/10/24 09:22:30;;;;;;;18.88;11.82;;;;;;;23.83;40.20;99483.59;4932129;28;97231;-81
2023/10/24 09:24:57;;;;;;;24.58;12.35;;;;;;;24.22;39.79;99468.88;4904328;28;97499;-82
2023/10/24 09:27:29;;;;;;;18.55;11.95;;;;;;;22.25;43.01;99472.47;4899834;28;101931;-81
2023/10/24 09:29:55;;;;;;;29.58;12.70;;;;;;;21.76;44.35;99470.88;4897469;28;101692;-81
2023/10/24 09:32:20;;;;;;;31.10;16.73;;;;;;;22.60;43.21;99498.47;4926999;28;97174;-82
2023/10/24 09:34:47;;;;;;;21.02;13.05;;;;;;;20.81;46.19;99469.78;4899906;28;96857;-82
2023/10/24 09:37:13;;;;;;;25.45;13.00;;;;;;;20.83;47.05;99477.63;4932306;28;97947;-81
2023/10/24 09:39:59;;;;;;;28.27;12.95;;;;;;;20.08;48.74;99474.47;4930380;28;101500;-80
2023/10/24 09:42:30;;;;;;;23.17;13.18;;;;;;;19.52;50.50;99499.63;4931232;28;97058;-81
2023/10/24 09:44:58;;;;;;;22.42;12.57;;;;;;;19.38;51.13;99487.47;4911681;28;97006;-79
2023/10/24 09:47:26;;;;;;;18.67;12.60;;;;;;;19.22;51.56;99474.56;4915433;28;97623;-81
2023/10/24 09:49:56;;;;;;;29.25;16.70;;;;;;;19.67;50.95;99463.72;4915314;28;101930;-82
2023/10/24 09:52:24;;;;;;;36.35;19.35;;;;;;;19.17;52.13;99460.84;4911646;28;97227;-79
2023/10/24 09:54:50;;;;;;;18.85;12.55;;;;;;;19.14;52.44;99469.06;4893170;28;97360;-80
2023/10/24 09:57:21;;;;;;;21.67;12.95;;;;;;;19.17;52.28;99463.50;4927508;28;97594;-79
2023/10/24 09:59:47;;;;;;;25.13;14.15;;;;;;;19.13;52.40;99440.75;4909482;28;97912;-79
2023/10/24 10:02:14;;;;;;;25.75;13.60;;;;;;;19.23;52.83;99464.81;4916462;28;97739;-80
2023/10/24 10:04:58;;;;;;;28.88;15.32;;;;;;;19.55;52.09;99437.28;4901396;28;97945;-79
2023/10/24 10:07:25;;;;;;;17.88;11.77;;;;;;;19.13;52.94;99432.78;4929284;28;97922;-79
2023/10/24 10:09:52;;;;;;;20.42;13.30;;;;;;;19.11;53.30;99423.25;4896961;28;101927;-79
2023/10/24 10:12:18;;;;;;;19.48;11.35;;;;;;;19.51;52.61;99419.88;4911548;28;98161;-78
2023/10/24 10:14:51;;;;;;;22.67;11.60;;;;;;;19.59;52.48;99412.94;4912139;28;96854;-77
2023/10/24 10:17:55;;;;;;;30.00;15.40;;;;;;;19.36;53.12;99401.59;4929685;28;98258;-79
2023/10/24 10:20:48;;;;;;;26.85;12.00;;;;;;;19.57;53.06;99398.91;4927885;28;98807;-76
2023/10/24 10:23:42;;;;;;;26.10;13.30;;;;;;;19.24;54.07;99394.66;4913438;28;97592;-82
2023/10/24 10:26:20;;;;;;;19.38;11.15;;;;;;;19.05;54.04;99382.03;4944645;28;97981;-78
2023/10/24 10:29:08;;;;;;;20.63;11.68;;;;;;;19.10;54.61;99398.47;4910873;28;101815;-79
2023/10/24 10:31:59;;;;;;;25.70;12.18;;;;;;;19.23;54.11;99374.34;4925770;28;97844;-80
2023/10/24 10:34:36;;;;;;;20.17;11.25;;;;;;;18.92;55.29;99374.25;4927402;28;97260;-80
2023/10/24 10:37:02;;;;;;;23.00;11.82;;;;;;;19.07;55.09;99382.75;4923885;28;96960;-81
2023/10/24 10:39:29;;;;;;;26.55;15.85;;;;;;;18.21;57.29;99386.28;4911293;28;101625;-80
2023/10/24 10:41:55;;;;;;;24.45;11.40;;;;;;;18.65;56.64;99384.50;4913828;28;102158;-81
2023/10/24 10:44:37;;;;;;;17.90;11.88;;;;;;;18.99;56.05;99369.25;4925435;28;97867;-81
2023/10/24 10:47:04;;;;;;;25.15;13.93;;;;;;;18.88;55.66;99326.78;4927704;28;96951;-82
2023/10/24 10:49:50;;;;;;;42.83;21.35;;;;;;;18.73;56.80;99364.34;4921566;28;98187;-82
2023/10/24 10:52:29;;;;;;;28.52;13.30;;;;;;;18.72;57.30;99375.88;4920652;28;98395;-81
2023/10/24 10:55:28;;;;;;;22.17;10.75;;;;;;;18.19;58.30;99378.47;4906574;28;96805;-82
2023/10/24 10:58:03;;;;;;;19.08;8.40;;;;;;;18.05;58.91;99362.78;4923969;28;96942;-82
2023/10/24 11:00:37;;;;;;;17.52;9.55;;;;;;;18.09;59.15;99348.28;4943032;28;97903;-82
2023/10/24 11:03:47;;;;;;;13.60;8.63;;;;;;;18.30;57.96;99311.19;4910598;28;100631;-80
2023/10/24 11:06:16;;;;;;;23.15;9.63;;;;;;;18.01;59.63;99334.81;4915797;28;97415;-79
2023/10/24 11:08:48;;;;;;;21.38;12.43;;;;;;;18.20;58.92;99304.94;4906418;28;97449;-82
2023/10/24 11:11:17;;;;;;;;;;;;;;;18.44;59.08;99329.50;4910420;28;101039;-79
2023/10/24 11:13:43;;;;;;;21.05;8.88;;;;;;;17.99;59.51;99297.75;4920316;28;98395;-78